Saturday, February 24, 2018, 10:32 PM EST
Back to Local

KVAY, Mt Holly South Jersey Rgnl

Location: Medford, NJ, United States Lat: 39.933
Local Time: 10:32 PM EST ( 3:32 GMT) Lon: -74.833
Time Zone: US/Eastern Elev: 52 ft

Show me the last for .
Show Decoded

2018-02-24 21:54 METAR KVAY 250254Z AUTO 06004KT 10SM OVC050 08/06 A3018 RMK AO2 SLP220 T00830056
                 51004 =
2018-02-24 20:54 METAR KVAY 250154Z AUTO 04005KT 10SM OVC050 08/07 A3018 RMK AO2 SLP218 T00830067
                 =
2018-02-24 19:54 METAR KVAY 250054Z AUTO 03006KT 10SM OVC045 09/07 A3019 RMK AO2 SLP221 T00890067
                 =
2018-02-24 18:54 METAR KVAY 242354Z AUTO 00000KT 10SM OVC048 09/07 A3017 RMK AO2 SLP216 60002
                 T00890067 10094 20089 51009 =
2018-02-24 17:54 METAR KVAY 242254Z AUTO 01003KT 10SM OVC048 09/08 A3017 RMK AO2 SLP215 T00940078
                 =
2018-02-24 16:54 METAR KVAY 242154Z AUTO 06003KT 9SM OVC049 09/08 A3017 RMK AO2 SLP214 T00940083
                 =
2018-02-24 15:54 METAR KVAY 242054Z AUTO 36004KT 10SM OVC042 09/08 A3014 RMK AO2 SLP207 60002
                 T00940083 58001 =
2018-02-24 14:54 METAR KVAY 241954Z AUTO 04003KT 10SM OVC044 09/08 A3013 RMK AO2 RAE29 SLP203
                 P0000 T00940083 =
2018-02-24 13:54 METAR KVAY 241854Z AUTO 34005KT 3SM -RA BR FEW013 OVC043 09/08 A3016 RMK AO2
                 RAB1759E11B31 SLP212 P0002 T00890083 =
2018-02-24 13:40 METAR KVAY 241840Z AUTO 27004KT 2 1/2SM -RA BR FEW009 FEW013 OVC039 09/08 A3017
                 RMK AO2 RAB1759E11B31 P0001 T00890083 =
2018-02-24 13:30 METAR KVAY 241830Z AUTO 00000KT 4SM BR FEW008 SCT013 OVC037 09/08 A3016 RMK AO2
                 RAB1759E11 P0000 T00940083 =
2018-02-24 12:54 METAR KVAY 241754Z AUTO 00000KT 4SM BR OVC037 09/08 A3015 RMK AO2 SLP208 60005
                 T00890083 10094 20067 58011 =
2018-02-24 11:54 METAR KVAY 241654Z AUTO 24003KT 5SM BR OVC037 09/08 A3019 RMK AO2 RAE08 SLP221
                 P0001 T00890078 =
2018-02-24 11:38 METAR KVAY 241638Z AUTO 00000KT 4SM BR SCT009 OVC037 09/08 A3019 RMK AO2 RAE08
                 P0001 T00890083 =
2018-02-24 11:24 METAR KVAY 241624Z AUTO 00000KT 4SM BR BKN009 OVC036 09/08 A3020 RMK AO2 RAE08
                 P0001 T00890083 =
2018-02-24 11:14 METAR KVAY 241614Z AUTO 00000KT 5SM BR BKN010 BKN036 OVC060 09/08 A3020 RMK AO2
                 RAE08 P0001 T00890083 =
2018-02-24 11:01 METAR KVAY 241601Z AUTO 27003KT 3SM -RA BR SCT008 BKN035 OVC060 08/08 A3020 RMK
                 AO2 P0001 T00830078 =
2018-02-24 10:54 METAR KVAY 241554Z AUTO 00000KT 1 1/2SM -RA BR FEW008 BKN048 OVC060 08/08 A3019
                 RMK AO2 RAB22E35B45 SLP224 P0004 T00830078 =
2018-02-24 10:47 METAR KVAY 241547Z AUTO 20003KT 2 1/2SM -RA BR FEW009 BKN060 OVC080 08/08 A3019
                 RMK AO2 RAB22E35B45 P0002 T00830078 =
2018-02-24 10:41 METAR KVAY 241541Z AUTO 00000KT 5SM BR BKN009 BKN060 OVC075 09/08 A3019 RMK AO2
                 RAB22E35 P0000 T00890078 =
2018-02-24 10:28 METAR KVAY 241528Z AUTO 00000KT 6SM -RA BR FEW008 BKN060 OVC080 09/07 A3019 RMK
                 AO2 RAB22 P0000 T00890072 =
2018-02-24 09:54 METAR KVAY 241454Z AUTO 00000KT 6SM BR BKN006 OVC110 08/07 A3018 RMK AO2 SLP219
                 T00830072 57004 =
2018-02-24 09:36 METAR KVAY 241436Z AUTO 00000KT 6SM BR FEW006 OVC110 08/07 A3019 RMK AO2
                 T00830072 =
2018-02-24 09:29 METAR KVAY 241429Z AUTO 00000KT 5SM BR BKN007 OVC100 08/07 A3019 RMK AO2
                 T00830072 =
2018-02-24 09:21 METAR KVAY 241421Z AUTO 00000KT 6SM BR SCT007 OVC100 08/07 A3019 RMK AO2
                 T00830072 =
2018-02-24 08:54 METAR KVAY 241354Z AUTO 00000KT 5SM BR OVC006 08/07 A3019 RMK AO2 SLP223
                 T00830072 =
2018-02-24 08:42 METAR KVAY 241342Z AUTO 00000KT 4SM BR OVC006 08/07 A3019 RMK AO2 T00780072 =
2018-02-24 08:17 METAR KVAY 241317Z AUTO 00000KT 3SM BR OVC005 08/07 A3019 RMK AO2 T00780072 =
2018-02-24 08:03 METAR KVAY 241303Z AUTO 36004KT 3SM BR OVC004 07/07 A3020 RMK AO2 T00720072 =
2018-02-24 07:54 METAR KVAY 241254Z AUTO 36004KT 2 1/2SM BR OVC004 07/07 A3019 RMK AO2 SLP223
                 T00720067 =
2018-02-24 07:46 METAR KVAY 241246Z AUTO 00000KT 2 1/2SM BR OVC004 07/07 A3019 RMK AO2 T00720072
                 =
2018-02-24 07:22 METAR KVAY 241222Z AUTO 00000KT 2 1/2SM BR OVC005 07/07 A3018 RMK AO2 T00720072
                 =
2018-02-24 07:05 METAR KVAY 241205Z AUTO 00000KT 2 1/2SM BR OVC004 07/07 A3018 RMK AO2 T00720072
                 =
2018-02-24 06:54 METAR KVAY 241154Z AUTO 00000KT 3SM BR OVC004 07/07 A3019 RMK AO2 SLP222 70013
                 T00670067 10072 20067 53001 =
2018-02-24 06:36 METAR KVAY 241136Z AUTO 00000KT 3SM BR OVC003 07/07 A3019 RMK AO2 T00670067 =
2018-02-24 06:04 METAR KVAY 241104Z AUTO 27003KT 2 1/2SM BR OVC003 07/07 A3019 RMK AO2 T00670067
                 =
2018-02-24 05:54 METAR KVAY 241054Z AUTO 26003KT 3SM BR OVC003 07/07 A3018 RMK AO2 SLP220
                 T00670067 =
2018-02-24 04:54 METAR KVAY 240954Z AUTO 26005KT 4SM BR OVC003 07/07 A3018 RMK AO2 SLP219
                 T00670067 =
2018-02-24 03:54 METAR KVAY 240854Z AUTO 24006KT 5SM BR OVC004 07/07 A3018 RMK AO2 SLP220
                 T00670067 58009 =
2018-02-24 03:45 METAR KVAY 240845Z AUTO 23004KT 6SM BR OVC004 07/07 A3018 RMK AO2 T00670067 =
2018-02-24 02:54 METAR KVAY 240754Z AUTO 27005KT 8SM OVC005 07/07 A3020 RMK AO2 SLP226 T00670067
                 =
2018-02-24 02:42 METAR KVAY 240742Z AUTO 26006KT 8SM OVC005 07/07 A3020 RMK AO2 T00720067 =
2018-02-24 01:54 METAR KVAY 240654Z AUTO 26007KT 10SM OVC006 07/07 A3021 RMK AO2 SLP228 T00720067
                 =
2018-02-24 01:14 METAR KVAY 240614Z AUTO 24004KT 10SM OVC006 07/07 A3021 RMK AO2 T00720067 =
2018-02-24 00:54 METAR KVAY 240554Z AUTO 24007KT 10SM OVC005 07/07 A3021 RMK AO2 SLP229 T00670067
                 10067 20056 56010 =
2018-02-23 23:54 METAR KVAY 240454Z AUTO 23008KT 10SM OVC005 07/07 A3021 RMK AO2 SLP232 T00670067
                 400670028 =
2018-02-23 23:51 METAR KVAY 240451Z AUTO 24008KT 10SM OVC005 07/07 A3022 RMK AO2 =
2018-02-23 22:54 METAR KVAY 240354Z AUTO VRB04KT 3SM BR OVC003 07/07 A3024 RMK AO2 SLP241
                 T00670067 =

Support USWX by starting your Amazon purchase here.